KAAA

Details ICAO KAAA
Name LOGAN CO
Region United States
Timezone America/Chicago (UTC-6.0)
Plans Departing 4
Arriving 0
Stats Elevation 597 ft / 182 m (AMSL)
Location 40.158848° -89.334886°
Runways 2
Magnetic Variation 2.362° W
Sunrise 2017-12-12 13:11:58 UTC / 2017-12-12 07:11:58 Local
Sunset 2017-12-12 22:33:16 UTC / 2017-12-12 16:33:16 Local
Advertisement - Login to hide

Runways

ID Width Length Bearing (true) Bearing (mag) Surface Threshold Offset Overrun Length
03 75 ft / 23 m 4,000 ft / 1,219 m 35.18° 37.54° Asphalt 0 ft / 0 m 0 ft / 0 m
14 135 ft / 41 m 3,004 ft / 916 m 144.55° 146.91° Grass 307 ft / 94 m 0 ft / 0 m
21 75 ft / 23 m 4,000 ft / 1,219 m 215.19° 217.55° Asphalt 0 ft / 0 m 0 ft / 0 m
32 135 ft / 41 m 3,004 ft / 916 m 324.55° 326.91° Grass 0 ft / 0 m 0 ft / 0 m

Map

Weather


0- 5 10 15 20 25 30 35+ Temperature / ° C

Clouds and Precipitation
Forecast for 2017-12-13 00:00 UTC. Updated 34 minutes ago

Ground ~20,000 ft ~40,000 ft Winds

METAR

KAAA 122135Z AUTO 30004KT 10SM CLR M01/M15 A3011 RMK AO2 T10121146

TAF

Not found

Frequencies

Recorded 118.77 MHz AWOS 3
Approach 124.45 MHz SPRINGFIELD APP/DEP
Unicom 122.80 MHz CTAF/UNICOM
Approach 126.15 MHz SPRINGFIELD APP/DEP
Warning: Do not use this data for real-world aviation or navigation. No guarantee of current accuracy is given.